• Join FlightAware (Why Join?)
  • Login
  • US Flag 
01:21PM EST


 

Airport Tracker/Info


-or-


 

Live Flight TrackerFlight Track Log ✈ DAL4165 ✈ 23-Apr-2013 ✈ KATL - KOKC

Flight Track Log - Related Links

Times and Time Zones

All times are in EDT time to prevent confusion due to time zone crossing. See the DAL4165 flight status page for this flight to view local times or setup timezone preferences in your user account.

Time Position Orientation Groundspeed Altitude Reporting Facility
EDT Latitude Longitude Course Direction KTS MPH feet Rate Location/Type
04:26PM 33.6561 -84.3583 252° West 434 499 2,600  Level Atlanta Center
04:27PM 33.6667 -84.3333 63° Northeast 227 261 2,900 2,220 Climbing Atlanta TRACON
04:28PM 33.7167 -84.2833 40° Northeast 275 316 5,800 2,520 Climbing Atlanta TRACON
04:29PM 33.8001 -84.4491 270° West  Level FlightAware Approximate
04:29PM 33.8000 -84.3000 351° North 292 336 8,200  Level Atlanta TRACON
04:30PM 33.8000 -84.5737 270° West  Level FlightAware Approximate
04:30PM 33.8103 -84.4264 276° West 275 316 12,000  Level Atlanta Center
04:31PM 33.7787 -84.6942 252° West  Level FlightAware Approximate
04:31PM 33.8100 -84.5414 270° West 294 338 13,100  Level Atlanta Center
04:32PM 33.7969 -84.6364 261° West 340 391 14,000 1,500 Climbing Atlanta Center
04:33PM 33.7650 -84.7808 255° West 364 419 16,100 1,860 Climbing Atlanta Center
04:34PM 33.7328 -84.9056 253° West 383 441 17,800 1,440 Climbing Atlanta Center
04:35PM 33.6983 -85.0325 252° West 403 464 19,000 1,380 Climbing Atlanta Center
04:36PM 33.6681 -85.1594 254° West 403 464 20,600 1,380 Climbing Atlanta Center
04:37PM 33.6500 -85.2942 261° West 403 464 21,800 1,020 Climbing Atlanta Center
04:38PM 33.6508 -85.4214 270° West 414 476 22,700 1,140 Climbing Atlanta Center
04:39PM 33.6556 -85.5586 272° West 419 482 24,100 1,320 Climbing Atlanta Center
04:40PM 33.6578 -85.6961 271° West 424 488 25,400 1,200 Climbing Atlanta Center
04:41PM 33.6581 -85.8308 270° West 415 478 26,600 1,200 Climbing Atlanta Center
04:42PM 33.6603 -85.9681 271° West 415 478 27,800 1,200 Climbing Atlanta Center
04:43PM 33.6622 -86.1053 271° West 415 478 29,000 1,200 Climbing Atlanta Center
04:44PM 33.6617 -86.2450 270° West 421 484 30,200 1,200 Climbing Atlanta Center
04:45PM 33.6656 -86.3800 272° West 421 484 31,400 900 Climbing Atlanta Center
04:46PM 33.6650 -86.5172 270° West 416 479 32,000 300 Climbing Atlanta Center
04:47PM 33.6664 -86.6569 271° West 421 484 32,000  Level Atlanta Center
04:48PM 33.6672 -86.8019 270° West 426 490 32,000  Level Atlanta Center
04:49PM 33.6786 -86.9469 275° West 431 496 32,000 600 Level Atlanta Center
04:51PM 33.7483 -87.2744 284° West 425 489 34,000 600 Climbing Memphis Center
04:52PM 33.7744 -87.4083 283° West 425 489 34,000  Level Memphis Center
04:53PM 33.8003 -87.5275 285° West 425 489 34,000  Level Memphis Center
04:54PM 33.8283 -87.6642 284° West 425 489 34,000  Level Memphis Center
04:55PM 33.8583 -87.7983 285° West 425 489 34,000  Level Memphis Center
04:56PM 33.8858 -87.9300 284° West 420 483 34,000  Level Memphis Center
04:57PM 33.9114 -88.0669 283° West 420 483 34,000  Level Memphis Center
04:58PM 33.9411 -88.2039 285° West 415 478 34,000 120 Level Memphis Center
04:59PM 33.9664 -88.3361 283° West 415 478 34,300 660 Climbing Memphis Center
05:00PM 33.9933 -88.4681 284° West 410 472 35,400 840 Climbing Memphis Center
05:01PM 34.0203 -88.5978 284° West 410 472 36,000 300 Climbing Memphis Center
05:02PM 34.0450 -88.7303 283° West 410 472 36,000  Level Memphis Center
05:03PM 34.0783 -88.8725 286° West 410 472 36,000  Level Memphis Center
05:04PM 34.0983 -88.9950 281° West 410 472 36,000  Level Memphis Center
05:05PM 34.1228 -89.1253 283° West 410 472 36,000  Level Memphis Center
05:06PM 34.1533 -89.2628 285° West 398 458 36,000  Level Memphis Center
05:07PM 34.1794 -89.3931 284° West 398 458 36,000  Level Memphis Center
05:08PM 34.2033 -89.5233 283° West 398 458 36,000  Level Memphis Center
05:09PM 34.2292 -89.6536 284° West 398 458 36,000  Level Memphis Center
05:10PM 34.2528 -89.7792 283° West 392 451 36,000  Level Memphis Center
05:11PM 34.2761 -89.9147 282° West 398 458 36,000  Level Memphis Center
05:12PM 34.3017 -90.0428 284° West 398 458 36,000  Level Memphis Center
05:13PM 34.3228 -90.1761 281° West 393 452 36,000  Level Memphis Center
05:14PM 34.3481 -90.2994 284° West 393 452 36,000  Level Memphis Center
05:15PM 34.3708 -90.4300 282° West 393 452 36,000  Level Memphis Center
05:16PM 34.3917 -90.5458 282° West 398 458 36,000  Level Memphis Center
05:17PM 34.4144 -90.6769 282° West 392 451 36,000  Level Memphis Center
05:18PM 34.4411 -90.8053 284° West 392 451 36,000  Level Memphis Center
05:19PM 34.4636 -90.9339 282° West 392 451 36,000  Level Memphis Center
05:20PM 34.4836 -91.0678 280° West 392 451 36,000  Level Memphis Center
05:21PM 34.5142 -91.2067 285° West 392 451 36,000  Level Memphis Center
05:22PM 34.5361 -91.3378 282° West 392 451 36,000  Level Memphis Center
05:23PM 34.5558 -91.4717 280° West 397 457 36,000  Level Memphis Center
05:24PM 34.5797 -91.6058 282° West 397 457 36,000  Level Memphis Center
05:25PM 34.6033 -91.7372 282° West 402 463 36,000  Level Memphis Center
05:26PM 34.6269 -91.8689 282° West 402 463 36,000  Level Memphis Center
05:27PM 34.6481 -92.0031 281° West 407 468 36,000  Level Memphis Center
05:28PM 34.6714 -92.1350 282° West 407 468 36,000  Level Memphis Center
05:29PM 34.6903 -92.2692 280° West 412 474 36,000  Level Memphis Center
05:30PM 34.7089 -92.4033 280° West 412 474 36,000  Level Memphis Center
05:31PM 34.7275 -92.5353 280° West 412 474 36,000  Level Memphis Center
05:32PM 34.7461 -92.6647 280° West 407 468 36,000  Level Memphis Center
05:33PM 34.7644 -92.7992 279° West 407 468 36,000  Level Memphis Center
05:34PM 34.7808 -92.9183 280° West 407 468 36,000  Level Memphis Center
05:35PM 34.8011 -93.0456 281° West 402 463 36,000  Level Memphis Center
05:36PM 34.8192 -93.1775 278° West 402 463 36,000  Level Memphis Center
05:37PM 34.8169 -93.1786 278° West  Level FlightAware Approximate
05:37PM 34.8350 -93.3047 279° West 396 456 36,000  Level Memphis Center
05:38PM 34.8525 -93.4369 279° West 391 450 36,000  Level Memphis Center
05:39PM 34.8722 -93.5692 280° West 391 450 36,000  Level Memphis Center
05:40PM 34.8875 -93.6989 278° West 391 450 36,000  Level Memphis Center
05:41PM 34.9069 -93.8289 280° West 391 450 36,000  Level Memphis Center
05:42PM 34.9242 -93.9611 279° West 396 456 36,000  Level Memphis Center
05:43PM 34.9369 -94.0883 277° West 396 456 36,000 -300 Level Memphis Center
05:44PM 34.9581 -94.2211 281° West 396 456 35,400 -840 Descending Memphis Center
05:45PM 34.9725 -94.3536 278° West 391 450 34,400 -960 Descending Memphis Center
05:46PM 34.9828 -94.4308 279° West 411 473 34,000 -300 Descending Fort Worth Center
05:47PM 35.0006 -94.5594 280° West 411 473 34,000  Level Fort Worth Center
05:48PM 35.0203 -94.6983 280° West 411 473 34,000  Level Fort Worth Center
05:49PM 35.0356 -94.8347 278° West 411 473 34,000  Level Fort Worth Center
05:50PM 35.0572 -94.9711 281° West 406 467 34,000  Level Fort Worth Center
05:51PM 35.0744 -95.1100 279° West 406 467 34,000  Level Fort Worth Center
05:52PM 35.0914 -95.2442 279° West 411 473 34,000 -540 Level Fort Worth Center
05:53PM 35.1103 -95.3858 279° West 411 473 33,000 -1,140 Descending Fort Worth Center
05:54PM 35.1269 -95.5147 279° West 405 466 31,800 -1,200 Descending Fort Worth Center
05:55PM 35.1439 -95.6617 278° West 400 460 30,600 -1,200 Descending Fort Worth Center
05:56PM 35.1581 -95.7961 277° West 400 460 29,400 -1,140 Descending Fort Worth Center
05:57PM 35.1700 -95.9203 277° West 407 468 28,400 -1,200 Descending Fort Worth Center
05:58PM 35.1883 -96.0544 280° West 407 468 27,100 2,760 Descending Fort Worth Center
05:59PM 35.2019 -96.1761 278° West 399 459 34,000 3,420 Climbing Fort Worth Center
06:00PM 35.2156 -96.2956 278° West 374 430 34,000 -6,300 Level Fort Worth Center
06:01PM 35.2292 -96.4197 278° West 369 425 21,500 -9,840 Descending Fort Worth Center
06:01PM 35.2381 -96.4883 279° West 389 448 20,300 -2,340 Descending Fort Worth Center
06:02PM 35.2469 -96.5467 281° West 385 443 19,400 -1,860 Descending Fort Worth Center
06:03PM 35.2581 -96.6761 276° West 377 434 17,500 -1,980 Descending Fort Worth Center
06:04PM 35.2503 -96.8008 266° West 332 382 15,400 -1,920 Descending Fort Worth Center
06:05PM 35.2447 -96.8975 266° West 338 389 13,600 -1,980 Descending Fort Worth Center
06:06PM 35.2450 -96.9942 270° West 296 341 11,700 -1,920 Descending Fort Worth Center
06:07PM 35.2411 -97.0856 267° West 274 315 10,100 -1,800 Descending Fort Worth Center
06:08PM 35.2244 -97.1797 258° West 249 287 8,100 -1,920 Descending Fort Worth Center
06:09PM 35.2058 -97.2636 255° West 257 296 6,200 -1,920 Descending Fort Worth Center
06:10PM 35.1850 -97.3500 254° West 264 304 4,300 -1,440 Descending Fort Worth Center
06:11PM 35.1811 -97.4364 267° West 256 295 3,300 -660 Descending Fort Worth Center
06:12PM 35.1808 -97.5228 270° West 249 287 3,000 -180 Descending Fort Worth Center
06:13PM 35.2122 -97.5889 300° West 236 272 3,000  Level Fort Worth Center
06:14PM 35.2664 -97.5917 358° North 177 204 3,100 60 Climbing Fort Worth Center